Time;durP1;ratioP1;P1;durP2;ratioP2;P2;SDS_P1;SDS_P2;PMS_P1;PMS_P2;Temp;Humidity;BMP_temperature;BMP_pressure;BME280_temperature;BME280_humidity;BME280_pressure;Samples;Min_cycle;Max_cycle;Signal;HPM_P1;HPM_P2
2023/07/25 00:01:34;;;;;;;7.60;2.27;;;14.90;99.90;;;;;;5091922;28;20096;-81
2023/07/25 00:04:00;;;;;;;6.03;2.23;;;14.90;99.90;;;;;;5091963;28;20051;-81
2023/07/25 00:06:26;;;;;;;9.13;2.43;;;14.80;99.90;;;;;;5093313;28;20040;-81
2023/07/25 00:08:52;;;;;;;11.67;2.80;;;14.80;99.90;;;;;;5093188;28;20040;-81
2023/07/25 00:11:17;;;;;;;6.63;2.80;;;14.80;99.90;;;;;;5092353;28;20044;-81
2023/07/25 00:13:43;;;;;;;9.23;2.83;;;14.70;99.90;;;;;;5093090;28;20051;-81
2023/07/25 00:16:09;;;;;;;10.97;2.63;;;14.70;99.90;;;;;;5092008;28;20055;-81
2023/07/25 00:18:35;;;;;;;10.23;2.47;;;14.70;99.90;;;;;;5075238;28;20048;-81
2023/07/25 00:21:00;;;;;;;9.37;2.87;;;14.70;99.90;;;;;;5092025;28;20054;-81
2023/07/25 00:23:26;;;;;;;10.97;2.37;;;14.70;99.90;;;;;;5075334;28;20083;-81
2023/07/25 00:25:52;;;;;;;11.17;2.87;;;14.70;99.90;;;;;;5092036;28;20491;-81
2023/07/25 00:28:17;;;;;;;7.97;2.17;;;14.70;99.90;;;;;;5093182;28;20051;-81
2023/07/25 00:30:43;;;;;;;9.67;3.27;;;14.70;99.90;;;;;;5091807;28;20054;-81
2023/07/25 00:33:09;;;;;;;9.17;2.30;;;14.80;99.90;;;;;;5092272;28;20047;-81
2023/07/25 00:35:34;;;;;;;9.53;2.70;;;14.80;99.90;;;;;;5058546;28;20040;-81
2023/07/25 00:38:03;;;;;;;13.93;3.33;;;14.80;99.90;;;;;;5092205;28;20059;-81
2023/07/25 00:40:29;;;;;;;7.73;2.20;;;14.80;99.90;;;;;;5093133;28;20040;-81
2023/07/25 00:42:55;;;;;;;8.70;3.00;;;14.80;99.90;;;;;;5091832;28;20574;-81
2023/07/25 00:45:22;;;;;;;8.73;2.43;;;14.90;99.90;;;;;;5096734;28;20064;-81
2023/07/25 00:47:49;;;;;;;11.77;2.40;;;14.90;99.90;;;;;;5095805;28;20472;-81
2023/07/25 00:50:14;;;;;;;8.93;2.53;;;14.90;99.90;;;;;;5095704;28;20063;-81
2023/07/25 00:52:40;;;;;;;7.27;2.27;;;14.90;99.90;;;;;;5095765;28;20052;-81
2023/07/25 00:55:07;;;;;;;9.40;2.40;;;14.90;99.90;;;;;;5096882;28;20051;-81
2023/07/25 00:57:32;;;;;;;11.00;2.67;;;14.90;99.90;;;;;;5095978;28;20048;-81
2023/07/25 00:59:58;;;;;;;8.23;2.43;;;14.90;99.90;;;;;;5096488;28;20127;-81
2023/07/25 01:02:24;;;;;;;9.07;2.43;;;14.90;99.90;;;;;;5095555;28;20048;-81
2023/07/25 01:04:50;;;;;;;9.20;2.17;;;14.80;99.90;;;;;;5095152;28;20047;-81
2023/07/25 01:07:17;;;;;;;9.47;2.20;;;14.80;99.90;;;;;;5096671;28;20047;-81
2023/07/25 01:09:45;;;;;;;6.77;2.40;;;14.80;99.90;;;;;;5096278;28;20048;-81
2023/07/25 01:12:11;;;;;;;7.27;2.57;;;14.70;99.90;;;;;;5096574;28;20396;-81
2023/07/25 01:14:38;;;;;;;7.83;2.60;;;14.70;99.90;;;;;;5095235;28;20056;-81
2023/07/25 01:17:11;;;;;;;11.03;2.90;;;14.70;99.90;;;;;;5095496;28;20442;-81
2023/07/25 01:19:39;;;;;;;6.87;2.47;;;14.60;99.90;;;;;;5096173;28;20047;-81
2023/07/25 01:22:07;;;;;;;8.27;2.67;;;14.60;99.90;;;;;;5096838;28;20109;-81
2023/07/25 01:24:34;;;;;;;8.07;2.33;;;14.50;99.90;;;;;;5096076;28;20522;-81
2023/07/25 01:27:01;;;;;;;9.30;2.70;;;14.50;99.90;;;;;;5096117;28;20039;-81
2023/07/25 01:29:26;;;;;;;9.23;2.70;;;14.40;99.90;;;;;;5094961;28;20298;-81
2023/07/25 01:31:52;;;;;;;9.07;2.50;;;14.40;99.90;;;;;;5095976;28;20048;-81
2023/07/25 01:34:18;;;;;;;9.33;3.17;;;14.40;99.90;;;;;;5096282;28;20554;-81
2023/07/25 01:36:43;;;;;;;9.07;3.13;;;14.40;99.90;;;;;;5095954;28;20390;-82
2023/07/25 01:39:09;;;;;;;10.67;2.37;;;14.40;99.90;;;;;;5095646;28;20089;-81
2023/07/25 01:41:35;;;;;;;16.03;3.63;;;14.40;99.90;;;;;;5096175;28;20044;-81
2023/07/25 01:44:00;;;;;;;9.70;2.60;;;14.40;99.90;;;;;;5094658;28;20532;-81
2023/07/25 01:46:26;;;;;;;8.10;2.60;;;14.50;99.90;;;;;;5095977;28;20044;-81
2023/07/25 01:48:52;;;;;;;10.13;2.77;;;14.50;99.90;;;;;;5095468;28;20044;-81
2023/07/25 01:51:17;;;;;;;9.83;2.37;;;14.50;99.90;;;;;;5094548;28;20056;-81
2023/07/25 01:53:43;;;;;;;8.43;2.70;;;14.50;99.90;;;;;;5094367;28;20101;-81
2023/07/25 01:56:09;;;;;;;9.43;2.90;;;14.50;99.90;;;;;;5094377;28;20051;-81
2023/07/25 01:58:34;;;;;;;10.77;3.03;;;14.50;99.90;;;;;;5094578;28;20082;-81
2023/07/25 02:01:00;;;;;;;8.77;2.93;;;14.50;99.90;;;;;;5094093;28;20094;-81
2023/07/25 02:03:26;;;;;;;10.80;2.87;;;14.50;99.90;;;;;;5078100;28;20087;-81
2023/07/25 02:05:52;;;;;;;10.47;2.30;;;14.50;99.90;;;;;;5095360;28;20056;-81
2023/07/25 02:08:18;;;;;;;11.43;2.83;;;14.50;99.90;;;;;;5095653;28;20052;-81
2023/07/25 02:10:44;;;;;;;13.90;4.10;;;14.60;99.90;;;;;;5094884;28;20083;-81
2023/07/25 02:13:09;;;;;;;8.13;2.63;;;14.60;99.90;;;;;;5094710;28;20063;-81
2023/07/25 02:15:36;;;;;;;8.47;2.80;;;14.60;99.90;;;;;;5095560;28;20490;-81
2023/07/25 02:18:03;;;;;;;8.53;3.27;;;14.60;99.90;;;;;;5094050;28;20151;-81
2023/07/25 02:20:31;;;;;;;8.63;2.30;;;14.60;99.90;;;;;;5093996;28;20070;-81
2023/07/25 02:22:58;;;;;;;10.83;2.70;;;14.60;99.90;;;;;;5094941;28;20040;-81
2023/07/25 02:25:25;;;;;;;9.23;2.37;;;14.60;99.90;;;;;;5077473;28;20063;-81
2023/07/25 02:27:51;;;;;;;10.10;2.30;;;14.60;99.90;;;;;;5093654;28;20047;-81
2023/07/25 02:30:17;;;;;;;9.47;2.60;;;14.60;99.90;;;;;;5077654;28;20044;-81
2023/07/25 02:32:42;;;;;;;11.97;2.70;;;14.60;99.90;;;;;;5095129;28;20044;-81
2023/07/25 02:35:08;;;;;;;11.93;2.87;;;14.60;99.90;;;;;;5093435;28;20048;-81
2023/07/25 02:37:34;;;;;;;10.13;2.60;;;14.60;99.90;;;;;;5093820;28;20132;-81
2023/07/25 02:39:59;;;;;;;11.83;2.67;;;14.60;99.90;;;;;;5093414;28;20044;-81
2023/07/25 02:42:25;;;;;;;9.33;2.90;;;14.60;99.90;;;;;;5094484;28;20055;-81
2023/07/25 02:44:51;;;;;;;9.23;2.37;;;14.60;99.90;;;;;;5094461;28;20054;-81
2023/07/25 02:47:16;;;;;;;7.23;2.17;;;14.60;99.90;;;;;;5094797;28;20071;-81
2023/07/25 02:49:42;;;;;;;8.67;3.53;;;14.60;99.90;;;;;;5093452;28;20163;-80
2023/07/25 02:52:08;;;;;;;10.10;2.47;;;14.50;99.90;;;;;;5094443;28;20052;-81
2023/07/25 02:54:34;;;;;;;8.10;2.57;;;14.50;99.90;;;;;;5093703;28;20290;-81
2023/07/25 02:56:59;;;;;;;8.43;2.37;;;14.50;99.90;;;;;;5092820;28;20052;-81
2023/07/25 02:59:25;;;;;;;10.23;2.83;;;14.50;99.90;;;;;;5076735;28;20040;-81
2023/07/25 03:01:51;;;;;;;9.73;2.67;;;14.50;99.90;;;;;;5094250;28;20127;-81
2023/07/25 03:04:17;;;;;;;12.60;2.57;;;14.50;99.90;;;;;;5060403;28;20052;-81
2023/07/25 03:06:42;;;;;;;9.67;2.50;;;14.50;99.90;;;;;;5092731;28;20122;-81
2023/07/25 03:09:08;;;;;;;7.37;2.70;;;14.40;99.90;;;;;;5093125;28;20535;-81
2023/07/25 03:11:34;;;;;;;11.47;2.67;;;14.40;99.90;;;;;;5094476;28;20044;-81
2023/07/25 03:13:59;;;;;;;9.17;2.70;;;14.40;99.90;;;;;;5093134;28;20079;-81
2023/07/25 03:16:25;;;;;;;9.23;2.63;;;14.30;99.90;;;;;;5094113;28;20052;-81
2023/07/25 03:18:51;;;;;;;7.27;2.60;;;14.30;99.90;;;;;;5076065;28;20040;-81
2023/07/25 03:21:17;;;;;;;9.33;2.20;;;14.30;99.90;;;;;;5094457;28;20048;-81
2023/07/25 03:23:42;;;;;;;9.20;2.40;;;14.30;99.90;;;;;;5093025;28;20052;-81
2023/07/25 03:26:08;;;;;;;7.97;2.40;;;14.30;99.90;;;;;;5075930;28;20131;-81
2023/07/25 03:28:34;;;;;;;10.13;2.47;;;14.20;99.90;;;;;;5094143;28;20063;-81
2023/07/25 03:31:00;;;;;;;7.30;2.47;;;14.20;99.90;;;;;;5092280;28;20032;-81
2023/07/25 03:33:27;;;;;;;10.63;2.43;;;14.10;99.90;;;;;;5093888;28;20059;-81
2023/07/25 03:35:56;;;;;;;6.67;2.20;;;14.10;99.90;;;;;;5092603;28;20672;-80
2023/07/25 03:38:21;;;;;;;8.30;2.33;;;14.10;99.90;;;;;;5092513;28;20282;-81
2023/07/25 03:40:47;;;;;;;8.70;2.03;;;14.00;99.90;;;;;;5092538;28;20323;-80
2023/07/25 03:43:13;;;;;;;11.40;2.80;;;14.00;99.90;;;;;;5092469;28;20193;-81
2023/07/25 03:45:39;;;;;;;6.87;2.07;;;13.90;99.90;;;;;;5093798;28;20476;-81
2023/07/25 03:48:05;;;;;;;10.17;2.60;;;13.90;99.90;;;;;;5093417;28;20092;-80
2023/07/25 03:50:31;;;;;;;8.10;2.50;;;13.90;99.90;;;;;;5093333;28;20329;-80
2023/07/25 03:52:58;;;;;;;6.07;2.17;;;13.90;99.90;;;;;;5093235;28;20313;-81
2023/07/25 03:55:24;;;;;;;8.37;2.20;;;13.90;99.90;;;;;;5092558;28;20510;-81
2023/07/25 03:57:50;;;;;;;10.10;2.63;;;13.90;99.90;;;;;;5092582;28;20290;-80
2023/07/25 04:00:16;;;;;;;6.97;2.10;;;13.80;99.90;;;;;;5075162;28;20040;-81
2023/07/25 04:02:42;;;;;;;7.20;2.20;;;13.80;99.90;;;;;;5092632;28;20817;-81
2023/07/25 04:05:08;;;;;;;6.97;2.00;;;13.80;99.90;;;;;;5093142;28;20047;-81
2023/07/25 04:07:34;;;;;;;8.57;2.10;;;13.80;99.90;;;;;;5092585;28;20055;-81
2023/07/25 04:10:00;;;;;;;12.67;2.90;;;13.80;99.90;;;;;;5093075;28;20270;-81
2023/07/25 04:12:26;;;;;;;11.00;2.00;;;13.80;99.90;;;;;;5075623;28;20051;-81
2023/07/25 04:14:52;;;;;;;9.57;2.67;;;13.80;99.90;;;;;;5092183;28;20282;-81
2023/07/25 04:17:18;;;;;;;9.30;2.23;;;13.80;99.90;;;;;;5091834;28;20483;-81
2023/07/25 04:19:44;;;;;;;7.50;2.23;;;13.80;99.90;;;;;;5093113;28;20075;-81
2023/07/25 04:22:09;;;;;;;12.53;2.13;;;13.80;99.90;;;;;;5093001;28;20504;-80
2023/07/25 04:24:35;;;;;;;7.17;2.00;;;13.80;99.90;;;;;;5092188;28;20071;-81
2023/07/25 04:27:01;;;;;;;6.87;1.90;;;13.80;99.90;;;;;;5092913;28;20086;-81
2023/07/25 04:29:26;;;;;;;7.27;2.00;;;13.90;99.90;;;;;;5093088;28;20040;-80
2023/07/25 04:31:52;;;;;;;8.27;2.60;;;13.90;99.90;;;;;;5093187;28;20074;-81
2023/07/25 04:34:18;;;;;;;6.30;1.93;;;13.90;99.90;;;;;;5092779;28;20052;-80
2023/07/25 04:36:44;;;;;;;10.53;2.10;;;13.90;99.90;;;;;;5093084;28;20044;-80
2023/07/25 04:39:09;;;;;;;7.20;2.03;;;13.90;99.90;;;;;;5092817;28;20052;-80
2023/07/25 04:41:35;;;;;;;8.03;2.30;;;14.00;99.90;;;;;;5092149;28;20044;-81
2023/07/25 04:44:01;;;;;;;7.20;2.27;;;14.00;99.90;;;;;;5093123;28;20044;-80
2023/07/25 04:46:28;;;;;;;13.33;2.53;;;14.10;99.90;;;;;;5093218;28;20040;-81
2023/07/25 04:48:54;;;;;;;10.10;2.50;;;14.10;99.90;;;;;;5093006;28;20388;-81
2023/07/25 04:51:19;;;;;;;9.47;2.30;;;14.10;99.90;;;;;;5091292;28;21293;-81
2023/07/25 04:53:45;;;;;;;6.77;2.50;;;14.20;99.90;;;;;;5093277;28;20388;-81
2023/07/25 04:56:11;;;;;;;12.57;2.50;;;14.20;99.90;;;;;;5091671;28;20090;-81
2023/07/25 04:58:38;;;;;;;6.20;1.73;;;14.20;99.90;;;;;;5091533;28;20123;-81
2023/07/25 05:01:04;;;;;;;5.80;2.13;;;14.20;99.90;;;;;;5091357;28;20040;-81
2023/07/25 05:03:30;;;;;;;8.60;2.27;;;14.30;99.90;;;;;;5091660;28;20282;-81
2023/07/25 05:05:56;;;;;;;9.77;2.20;;;14.40;99.90;;;;;;5091856;28;20365;-81
2023/07/25 05:08:22;;;;;;;9.07;1.90;;;14.40;99.90;;;;;;5092574;28;20482;-81
2023/07/25 05:10:51;;;;;;;9.87;1.90;;;14.50;99.90;;;;;;5091951;28;20334;-81
2023/07/25 05:13:17;;;;;;;6.87;1.83;;;14.60;99.90;;;;;;5092573;28;20457;-81
2023/07/25 05:15:42;;;;;;;9.23;2.50;;;14.60;99.90;;;;;;5091838;28;20434;-81
2023/07/25 05:18:08;;;;;;;8.23;2.17;;;14.80;99.90;;;;;;5091132;28;20335;-81
2023/07/25 05:20:34;;;;;;;7.90;2.23;;;14.90;99.90;;;;;;5091330;28;20040;-80
2023/07/25 05:23:00;;;;;;;8.40;1.80;;;15.00;99.90;;;;;;5091782;28;20044;-81
2023/07/25 05:25:25;;;;;;;11.17;2.30;;;15.10;99.90;;;;;;5091958;28;20498;-81
2023/07/25 05:27:51;;;;;;;9.83;2.10;;;15.10;99.90;;;;;;5091716;28;20075;-81
2023/07/25 05:30:17;;;;;;;8.93;1.60;;;15.20;99.90;;;;;;5093859;28;20434;-81
2023/07/25 05:32:43;;;;;;;9.83;2.00;;;15.20;99.90;;;;;;5096183;28;20047;-80
2023/07/25 05:35:08;;;;;;;8.57;2.10;;;15.20;99.90;;;;;;5095804;28;20479;-81
2023/07/25 05:37:36;;;;;;;7.47;1.80;;;15.20;99.90;;;;;;5078200;28;20063;-80
2023/07/25 05:40:02;;;;;;;9.37;2.47;;;15.30;99.90;;;;;;5078066;28;20040;-80
2023/07/25 05:42:29;;;;;;;7.87;1.73;;;15.40;99.90;;;;;;5077950;28;20090;-80
2023/07/25 05:44:54;;;;;;;6.73;1.77;;;15.60;99.90;;;;;;5095241;28;20044;-80
2023/07/25 05:47:20;;;;;;;6.97;1.60;;;15.70;99.90;;;;;;5094640;28;20537;-80
2023/07/25 05:49:46;;;;;;;12.20;2.00;;;15.80;99.90;;;;;;5094626;28;20044;-80
2023/07/25 05:52:12;;;;;;;6.47;1.57;;;15.90;99.90;;;;;;5094459;28;20121;-81
2023/07/25 05:54:39;;;;;;;8.30;1.67;;;16.10;99.90;;;;;;5094857;28;20181;-80
2023/07/25 05:57:05;;;;;;;5.27;2.40;;;16.50;99.90;;;;;;5094689;28;20131;-80
2023/07/25 05:59:31;;;;;;;8.03;1.77;;;17.80;99.90;;;;;;5094276;28;20044;-80
2023/07/25 06:01:57;;;;;;;7.63;1.43;;;19.40;99.90;;;;;;5094817;28;20475;-80
2023/07/25 06:04:23;;;;;;;4.53;1.37;;;20.80;99.90;;;;;;5094216;28;20495;-80
2023/07/25 06:06:48;;;;;;;5.27;1.70;;;21.90;99.90;;;;;;5077885;28;20075;-80
2023/07/25 06:09:15;;;;;;;7.37;1.60;;;22.80;99.90;;;;;;5077363;28;20097;-80
2023/07/25 06:11:41;;;;;;;5.50;1.30;;;23.60;99.90;;;;;;5077715;28;20040;-80
2023/07/25 06:14:06;;;;;;;4.67;1.50;;;24.40;99.90;;;;;;5077650;28;20044;-80
2023/07/25 06:16:32;;;;;;;8.67;1.60;;;25.10;99.90;;;;;;5094037;28;20476;-80
2023/07/25 06:18:58;;;;;;;3.47;1.20;;;25.90;99.30;;;;;;5094118;28;20442;-80
2023/07/25 06:21:23;;;;;;;4.73;1.37;;;26.60;95.70;;;;;;5077193;28;20036;-80
2023/07/25 06:23:49;;;;;;;7.83;1.63;;;27.00;89.00;;;;;;5094163;28;20562;-80
2023/07/25 06:26:15;;;;;;;3.33;1.30;;;27.50;78.00;;;;;;5077166;28;20130;-80
2023/07/25 06:28:40;;;;;;;6.03;1.40;;;28.00;69.80;;;;;;5094045;28;20477;-79
2023/07/25 06:31:06;;;;;;;5.30;1.53;;;28.20;61.20;;;;;;5094102;28;20051;-79
2023/07/25 06:33:32;;;;;;;5.40;1.37;;;28.60;58.10;;;;;;5076824;28;20152;-80
2023/07/25 06:35:58;;;;;;;5.40;1.30;;;28.90;55.10;;;;;;5060400;28;20044;-79
2023/07/25 06:38:24;;;;;;;6.30;1.97;;;29.00;53.10;;;;;;5093593;28;20131;-80
2023/07/25 06:40:49;;;;;;;4.95;1.63;;;28.70;51.80;;;;;;5092800;28;20122;-79
2023/07/25 06:43:15;;;;;;;5.07;1.42;;;29.00;51.50;;;;;;5059194;28;20120;-79
2023/07/25 06:45:41;;;;;;;3.83;1.30;;;29.30;50.20;;;;;;5093413;28;20052;-79
2023/07/25 06:48:06;;;;;;;4.32;1.73;;;29.70;49.30;;;;;;5076461;28;20046;-79
2023/07/25 06:50:33;;;;;;;7.57;1.88;;;30.20;48.30;;;;;;5092614;28;20870;-79
2023/07/25 06:52:59;;;;;;;6.75;1.75;;;30.60;47.50;;;;;;5092601;28;20408;-79
2023/07/25 06:55:26;;;;;;;7.32;1.83;;;30.80;56.30;;;;;;5058630;28;20050;-79
2023/07/25 06:57:53;;;;;;;6.28;2.08;;;31.20;45.50;;;;;;5073625;28;20078;-76
2023/07/25 07:00:22;;;;;;;4.65;1.50;;;31.40;44.10;;;;;;5076533;28;20051;-76
2023/07/25 07:02:49;;;;;;;4.78;1.73;;;31.70;44.20;;;;;;5076438;28;20040;-76
2023/07/25 07:05:20;;;;;;;4.97;1.67;;;31.40;42.90;;;;;;5059335;28;20047;-80
2023/07/25 07:07:57;;;;;;;4.20;1.60;;;30.70;43.00;;;;;;5093423;28;20076;-77
2023/07/25 07:10:34;;;;;;;4.65;1.42;;;30.30;42.80;;;;;;5076555;28;20089;-78
2023/07/25 07:13:04;;;;;;;4.07;1.48;;;29.50;43.90;;;;;;5061437;28;20050;-77
2023/07/25 07:15:38;;;;;;;4.93;1.50;;;28.40;44.20;;;;;;5076355;28;20519;-77
2023/07/25 07:18:07;;;;;;;3.63;1.40;;;26.90;46.00;;;;;;5076224;28;20446;-77
2023/07/25 07:20:41;;;;;;;5.50;1.83;;;25.80;49.10;;;;;;5092987;28;20056;-77
2023/07/25 07:23:11;;;;;;;4.60;1.77;;;25.80;61.70;;;;;;5061036;28;20051;-76
2023/07/25 07:25:38;;;;;;;3.85;1.35;;;26.10;59.10;;;;;;5058479;28;20043;-75
2023/07/25 07:28:04;;;;;;;5.78;1.55;;;26.90;62.30;;;;;;5076052;28;20063;-75
2023/07/25 07:30:33;;;;;;;5.68;1.40;;;27.70;60.90;;;;;;5042401;28;20104;-77
2023/07/25 07:33:07;;;;;;;3.50;1.30;;;28.20;59.40;;;;;;5076174;28;20052;-77
2023/07/25 07:35:37;;;;;;;4.78;1.73;;;28.50;58.70;;;;;;5092198;28;20052;-77
2023/07/25 07:38:07;;;;;;;5.80;1.73;;;29.80;57.80;;;;;;5060102;28;20048;-76
2023/07/25 07:40:43;;;;;;;6.78;1.65;;;29.80;56.30;;;;;;5075162;28;20044;-77
2023/07/25 07:43:29;;;;;;;3.80;1.23;;;30.30;55.00;;;;;;5077740;28;20377;-76
2023/07/25 07:45:58;;;;;;;3.70;1.42;;;30.70;56.60;;;;;;5092508;28;20139;-77
2023/07/25 07:48:35;;;;;;;4.47;1.48;;;31.10;55.50;;;;;;5076680;28;20129;-76
2023/07/25 07:51:08;;;;;;;4.22;1.75;;;31.00;56.50;;;;;;5093455;28;20121;-77
2023/07/25 07:53:47;;;;;;;;;;;30.30;57.80;;;;;;5092141;28;20054;-77
2023/07/25 07:56:13;;;;;;;6.80;1.42;;;29.20;64.00;;;;;;5075475;28;19962;-77
2023/07/25 07:58:39;;;;;;;8.23;1.85;;;28.60;71.40;;;;;;5091722;28;20062;-76
2023/07/25 08:01:16;;;;;;;5.10;1.58;;;28.50;73.30;;;;;;5075389;28;20036;-73
2023/07/25 08:03:43;;;;;;;4.55;1.67;;;28.50;58.40;;;;;;5092069;28;20551;-73
2023/07/25 08:06:09;;;;;;;5.55;1.70;;;28.90;57.60;;;;;;5075675;28;20040;-73
2023/07/25 08:08:36;;;;;;;3.80;1.52;;;29.70;57.10;;;;;;5075196;28;20468;-75
2023/07/25 08:11:08;;;;;;;5.38;1.70;;;30.60;55.50;;;;;;5075405;28;20044;-79
2023/07/25 08:13:39;;;;;;;3.92;1.63;;;31.40;53.80;;;;;;5060862;28;20507;-72
2023/07/25 08:16:05;;;;;;;4.43;1.52;;;32.00;53.20;;;;;;5093039;28;20083;-74
2023/07/25 08:18:31;;;;;;;4.03;1.63;;;32.50;55.20;;;;;;5091681;28;20060;-74
2023/07/25 08:20:58;;;;;;;3.75;1.65;;;32.90;71.50;;;;;;5057137;28;20086;-76
2023/07/25 08:23:25;;;;;;;5.05;1.60;;;32.50;38.50;;;;;;5088776;28;20101;-73
2023/07/25 08:25:53;;;;;;;5.90;2.05;;;32.40;38.70;;;;;;5091612;28;20044;-76
2023/07/25 08:28:21;;;;;;;5.80;1.88;;;32.60;38.70;;;;;;5075020;28;20055;-76
2023/07/25 08:31:01;;;;;;;4.72;1.63;;;32.40;38.50;;;;;;5091763;28;20501;-75
2023/07/25 08:33:31;;;;;;;3.17;1.38;;;32.50;36.30;;;;;;5091319;28;20044;-75
2023/07/25 08:36:09;;;;;;;3.83;1.67;;;32.10;38.00;;;;;;5076043;28;20093;-74
2023/07/25 08:38:35;;;;;;;4.70;1.70;;;31.20;38.80;;;;;;5072415;28;20211;-74
2023/07/25 08:41:15;;;;;;;4.97;1.50;;;30.60;39.70;;;;;;5085227;28;20097;-74
2023/07/25 08:43:43;;;;;;;4.82;1.30;;;29.60;40.20;;;;;;5074307;28;20058;-74
2023/07/25 08:46:18;;;;;;;5.97;1.50;;;29.10;41.90;;;;;;5092470;28;20047;-78
2023/07/25 08:48:53;;;;;;;4.75;1.50;;;28.40;43.00;;;;;;5090014;28;20481;-76
2023/07/25 08:51:24;;;;;;;4.30;1.85;;;27.50;47.80;;;;;;5091346;28;20052;-73
2023/07/25 08:54:02;;;;;;;5.70;1.65;;;26.80;42.10;;;;;;5074365;28;20048;-73
2023/07/25 08:56:28;;;;;;;3.65;1.40;;;26.10;70.00;;;;;;5074445;28;20052;-72
2023/07/25 08:58:55;;;;;;;4.72;1.33;;;26.40;55.60;;;;;;5058246;28;20135;-72
2023/07/25 09:01:22;;;;;;;4.57;1.60;;;;;;;;;;5057890;28;20542;-75
2023/07/25 09:03:49;;;;;;;6.72;1.40;;;25.50;50.00;;;;;;5091320;28;20480;-73
2023/07/25 09:06:15;;;;;;;6.45;1.70;;;;;;;;;;5077820;28;20092;-73
2023/07/25 09:08:42;;;;;;;4.80;1.48;;;24.60;47.40;;;;;;5078234;28;20044;-76
2023/07/25 09:11:09;;;;;;;3.65;1.60;;;24.50;47.50;;;;;;5078515;28;20093;-74
2023/07/25 09:13:37;;;;;;;4.28;1.33;;;24.30;48.10;;;;;;5096228;28;20048;-70
2023/07/25 09:16:03;;;;;;;3.38;1.20;;;24.30;48.60;;;;;;5095363;28;20087;-76
2023/07/25 09:18:36;;;;;;;5.45;1.40;;;24.10;49.00;;;;;;5095507;28;20080;-77
2023/07/25 09:21:03;;;;;;;4.95;1.50;;;;;;;;;;5077045;28;20079;-75
2023/07/25 09:23:29;;;;;;;3.85;1.17;;;24.30;48.50;;;;;;5060495;28;20044;-76
2023/07/25 09:26:06;;;;;;;5.10;1.55;;;24.50;49.00;;;;;;5077933;28;20040;-75
2023/07/25 09:28:35;;;;;;;5.20;1.30;;;24.40;49.00;;;;;;5094735;28;20105;-75
2023/07/25 09:31:05;;;;;;;5.33;1.40;;;24.20;49.10;;;;;;5077970;28;20047;-75
2023/07/25 09:33:34;;;;;;;4.97;1.30;;;24.10;49.10;;;;;;5062663;28;20422;-75
2023/07/25 09:36:00;;;;;;;4.70;1.57;;;23.90;49.80;;;;;;5061470;28;20138;-75
2023/07/25 09:38:26;;;;;;;4.17;1.30;;;23.90;50.30;;;;;;5061177;28;20511;-75
2023/07/25 09:40:51;;;;;;;5.20;1.60;;;23.90;50.10;;;;;;5060923;28;20044;-74
2023/07/25 09:43:24;;;;;;;8.07;1.43;;;23.90;50.00;;;;;;5094853;28;20048;-75
2023/07/25 09:45:51;;;;;;;4.47;1.27;;;23.80;50.00;;;;;;5077598;28;20055;-75
2023/07/25 09:48:20;;;;;;;6.53;1.27;;;23.70;49.60;;;;;;5077906;28;20052;-75
2023/07/25 09:50:48;;;;;;;3.93;1.13;;;23.40;49.50;;;;;;5093005;28;20079;-75
2023/07/25 09:53:16;;;;;;;4.80;1.67;;;23.30;50.10;;;;;;5094703;28;20484;-75
2023/07/25 09:55:44;;;;;;;3.03;1.10;;;23.20;50.50;;;;;;5094412;28;20051;-75
2023/07/25 09:58:10;;;;;;;4.97;1.50;;;23.00;50.60;;;;;;5094215;28;20083;-75
2023/07/25 10:00:37;;;;;;;5.63;1.50;;;22.80;51.30;;;;;;5093866;28;20523;-76
2023/07/25 10:03:03;;;;;;;2.37;1.10;;;22.70;51.10;;;;;;5060857;28;20399;-75
2023/07/25 10:05:43;;;;;;;5.50;1.20;;;22.50;51.70;;;;;;5094251;28;20110;-75
2023/07/25 10:08:10;;;;;;;4.90;1.40;;;22.50;51.90;;;;;;5077291;28;20052;-75
2023/07/25 10:10:37;;;;;;;3.13;1.20;;;22.60;52.70;;;;;;5077142;28;20134;-76
2023/07/25 10:13:03;;;;;;;3.90;1.23;;;22.50;52.50;;;;;;5044097;28;20048;-75
2023/07/25 10:15:31;;;;;;;3.73;1.20;;;22.60;53.10;;;;;;5077207;28;20062;-75
2023/07/25 10:18:16;;;;;;;4.30;1.20;;;22.50;53.20;;;;;;5076796;28;20040;-75
2023/07/25 10:20:48;;;;;;;5.17;1.00;;;22.60;53.40;;;;;;5077732;28;20456;-75
2023/07/25 10:23:14;;;;;;;2.27;1.00;;;22.60;52.90;;;;;;5076956;28;20054;-75
2023/07/25 10:25:41;;;;;;;4.53;1.30;;;22.60;53.20;;;;;;5093811;28;20066;-75
2023/07/25 10:28:08;;;;;;;4.43;1.20;;;22.70;53.70;;;;;;5093720;28;20052;-75
2023/07/25 10:30:47;;;;;;;5.73;1.47;;;22.70;54.60;;;;;;5077087;28;20051;-75
2023/07/25 10:33:14;;;;;;;3.50;1.43;;;22.80;54.80;;;;;;5095033;28;20063;-77
2023/07/25 10:35:50;;;;;;;5.77;1.30;;;22.70;53.30;;;;;;5094532;28;20051;-74
2023/07/25 10:38:36;;;;;;;4.60;1.13;;;22.60;53.50;;;;;;5076679;28;20101;-74
2023/07/25 10:41:15;;;;;;;4.33;1.60;;;22.40;55.20;;;;;;5093242;28;20086;-75
2023/07/25 10:43:44;;;;;;;4.17;1.33;;;22.30;54.90;;;;;;5092402;28;20148;-77
2023/07/25 10:46:16;;;;;;;4.87;1.50;;;22.30;55.60;;;;;;5076795;28;20052;-74
2023/07/25 10:48:47;;;;;;;4.17;1.27;;;22.30;56.10;;;;;;5094407;28;20044;-75
2023/07/25 10:51:15;;;;;;;6.03;1.73;;;22.20;56.90;;;;;;5094288;28;20052;-74
2023/07/25 10:54:08;;;;;;;4.97;1.80;;;22.30;59.20;;;;;;5076541;28;20454;-75
2023/07/25 10:56:34;;;;;;;3.77;1.37;;;22.40;64.10;;;;;;5093484;28;20080;-76
2023/07/25 10:59:03;;;;;;;4.27;1.40;;;22.30;61.90;;;;;;5093116;28;20087;-76
2023/07/25 11:01:39;;;;;;;4.27;1.23;;;22.40;61.90;;;;;;5093166;28;20083;-76
2023/07/25 11:04:24;;;;;;;6.23;1.90;;;22.40;62.40;;;;;;5094363;28;20091;-75
2023/07/25 11:06:51;;;;;;;8.23;2.10;;;22.50;63.30;;;;;;5093928;28;20067;-75
2023/07/25 11:09:17;;;;;;;5.63;1.90;;;22.60;61.90;;;;;;5093852;28;20055;-75
2023/07/25 11:11:45;;;;;;;5.30;1.60;;;22.50;62.60;;;;;;5092717;28;20051;-74
2023/07/25 11:14:15;;;;;;;5.23;1.50;;;22.60;61.60;;;;;;5094076;28;20044;-73
2023/07/25 11:16:42;;;;;;;5.07;2.00;;;22.60;61.30;;;;;;5094180;28;20048;-70
2023/07/25 11:19:09;;;;;;;4.17;1.37;;;22.60;61.10;;;;;;5094009;28;20088;-75
2023/07/25 11:21:43;;;;;;;5.27;1.77;;;22.40;60.30;;;;;;5094029;28;20614;-80
2023/07/25 11:24:09;;;;;;;6.40;1.58;;;22.30;61.30;;;;;;5093083;28;20048;-75
2023/07/25 11:26:38;;;;;;;3.47;1.30;;;22.10;62.70;;;;;;5076007;28;20052;-75
2023/07/25 11:29:06;;;;;;;4.60;1.27;;;22.00;64.60;;;;;;5092027;28;20048;-75
2023/07/25 11:31:32;;;;;;;4.53;1.37;;;22.00;66.80;;;;;;5093027;28;20454;-75
2023/07/25 11:34:11;;;;;;;3.93;1.20;;;21.80;67.30;;;;;;5093186;28;20039;-74
2023/07/25 11:36:39;;;;;;;4.27;1.27;;;21.80;69.10;;;;;;5093905;28;20086;-75
2023/07/25 11:39:09;;;;;;;4.30;1.47;;;21.70;69.60;;;;;;5093357;28;20070;-74
2023/07/25 11:41:39;;;;;;;4.53;1.40;;;21.80;69.50;;;;;;5093634;28;20498;-75
2023/07/25 11:44:09;;;;;;;4.57;1.40;;;21.80;67.80;;;;;;5093362;28;20090;-78
2023/07/25 11:46:39;;;;;;;3.87;1.50;;;21.80;69.50;;;;;;5093544;28;20036;-78
2023/07/25 11:49:05;;;;;;;4.43;1.30;;;21.80;70.90;;;;;;5093189;28;20071;-72
2023/07/25 11:51:32;;;;;;;4.40;1.40;;;21.80;73.10;;;;;;5092329;28;20163;-71
2023/07/25 11:53:58;;;;;;;5.90;1.37;;;21.70;73.50;;;;;;5091953;28;20040;-71
2023/07/25 11:56:24;;;;;;;3.70;1.50;;;21.70;73.70;;;;;;5093413;28;20044;-73
2023/07/25 11:58:50;;;;;;;3.73;2.00;;;21.70;74.00;;;;;;5093127;28;20051;-76
2023/07/25 12:01:18;;;;;;;6.33;1.33;;;21.50;71.90;;;;;;5093142;28;20047;-72
2023/07/25 12:03:48;;;;;;;3.50;1.53;;;21.50;71.30;;;;;;5093264;28;20500;-70
2023/07/25 12:06:15;;;;;;;3.20;1.40;;;21.40;70.60;;;;;;5093077;28;20613;-79
2023/07/25 12:08:43;;;;;;;3.73;1.20;;;21.30;69.60;;;;;;5092297;28;20075;-76
2023/07/25 12:11:11;;;;;;;11.77;2.87;;;21.20;72.70;;;;;;5091943;28;20135;-78
2023/07/25 12:13:47;;;;;;;10.60;2.43;;;20.90;90.10;;;;;;5093181;28;20395;-79
2023/07/25 12:16:43;;;;;;;7.17;1.93;;;20.60;99.90;;;;;;5092841;28;20055;-80
2023/07/25 12:19:11;;;;;;;4.10;1.50;;;20.00;99.90;;;;;;5077141;28;20438;-82
2023/07/25 12:21:39;;;;;;;3.97;1.70;;;19.70;99.90;;;;;;5091656;28;20047;-73
2023/07/25 12:24:07;;;;;;;3.77;1.60;;;19.40;99.90;;;;;;5092463;28;20093;-71
2023/07/25 12:26:48;;;;;;;3.23;1.57;;;19.30;99.90;;;;;;5091293;28;20055;-71
2023/07/25 12:29:18;;;;;;;5.23;1.57;;;19.20;99.90;;;;;;5092837;28;20048;-70
2023/07/25 12:31:44;;;;;;;3.33;1.60;;;19.20;99.90;;;;;;5092786;28;20564;-70
2023/07/25 12:34:12;;;;;;;6.83;2.27;;;19.20;99.90;;;;;;5092484;28;20369;-70
2023/07/25 12:36:38;;;;;;;5.30;1.73;;;19.30;99.90;;;;;;5091428;28;20403;-80
2023/07/25 12:39:04;;;;;;;4.77;1.63;;;19.40;99.90;;;;;;5093595;28;20122;-77
2023/07/25 12:41:29;;;;;;;4.67;1.40;;;19.50;99.90;;;;;;5096546;28;20047;-76
2023/07/25 12:43:55;;;;;;;5.37;1.57;;;19.60;99.90;;;;;;5095937;28;20396;-75
2023/07/25 12:46:21;;;;;;;4.93;2.03;;;19.60;99.90;;;;;;5096953;28;20082;-76
2023/07/25 12:48:46;;;;;;;3.67;1.40;;;19.60;99.90;;;;;;5096886;28;20048;-76